KSPW/SPW METAR and TAF weather

Enter ICAO airport designator
Station Type Date Time Source
KSPW METAR 2022/08/12 13:53 UTC NOAA

KSPW 121353Z AUTO 18010KT 10SM CLR 24/20 A3010 RMK AO2 SLP186 T02390200


Station Type Date Time Source
KSPW Decoded METAR 2022/08/12 13:53 UTC NOAA

SPENCER MUNICIPAL AIRPORT, IA, United States (KSPW) 43-10N 95-13W 403M
Aug 12, 2022 - 09:53 AM EDT / 2022.08.12 1353 UTC
Wind: from the S (180 degrees) at 12 MPH (10 KT):0
Visibility: 10 mile(s):0
Sky conditions: clear
Temperature: 75.0 F (23.9 C)
Dew Point: 68.0 F (20.0 C)
Relative Humidity: 78%
Pressure (altimeter): 30.1 in. Hg (1019 hPa)
ob: KSPW 121353Z AUTO 18010KT 10SM CLR 24/20 A3010 RMK AO2 SLP186 T02390200
cycle: 14

Station Type Date Time Source
KSPW TAF UTC NOAA

Error!

Example: see airport list